Time;durP1;ratioP1;P1;durP2;ratioP2;P2;SDS_P1;SDS_P2;PMS_P1;PMS_P2;Temp;Humidity;BMP_temperature;BMP_pressure;BME280_temperature;BME280_humidity;BME280_pressure;Samples;Min_cycle;Max_cycle;Signal;HPM_P1;HPM_P2
2021/10/05 00:01:30;;;;;;;24.07;9.78;;;;;;;8.46;100.00;102463.75;1668612;85;21448;-89
2021/10/05 00:03:54;;;;;;;21.90;9.83;;;;;;;8.48;100.00;102461.70;1652978;86;20993;-89
2021/10/05 00:06:20;;;;;;;19.82;8.90;;;;;;;8.49;100.00;102470.89;1668566;85;20982;-90
2021/10/05 00:08:46;;;;;;;25.48;10.18;;;;;;;8.49;100.00;102465.52;1668827;86;20923;-90
2021/10/05 00:11:12;;;;;;;21.93;9.35;;;;;;;8.51;100.00;102470.18;1666278;86;20884;-89
2021/10/05 00:13:40;;;;;;;23.83;9.25;;;;;;;8.53;100.00;102469.48;1668672;85;21007;-89
2021/10/05 00:16:06;;;;;;;25.75;10.08;;;;;;;8.54;100.00;102464.41;1668340;86;21216;-90
2021/10/05 00:18:32;;;;;;;23.00;9.58;;;;;;;8.51;100.00;102456.75;1668482;86;21593;-90
2021/10/05 00:20:58;;;;;;;24.40;9.40;;;;;;;8.58;100.00;102464.83;1668979;85;20999;-89
2021/10/05 00:23:24;;;;;;;30.27;10.20;;;;;;;8.60;100.00;102468.98;1668917;86;21007;-89
2021/10/05 00:25:50;;;;;;;24.87;10.90;;;;;;;8.63;100.00;102467.75;1668979;86;20892;-89
2021/10/05 00:28:16;;;;;;;23.20;10.23;;;;;;;8.64;100.00;102466.19;1668906;85;21632;-90
2021/10/05 00:30:43;;;;;;;27.02;10.65;;;;;;;8.67;100.00;102468.17;1668564;85;20911;-89
2021/10/05 00:33:09;;;;;;;25.65;10.45;;;;;;;8.68;100.00;102462.61;1668415;85;21062;-89
2021/10/05 00:35:35;;;;;;;28.42;12.80;;;;;;;8.69;100.00;102466.95;1668674;84;21782;-89
2021/10/05 00:38:01;;;;;;;25.15;11.43;;;;;;;8.72;100.00;102469.75;1668889;85;20919;-89
2021/10/05 00:40:27;;;;;;;30.62;13.35;;;;;;;8.73;100.00;102466.02;1668809;85;21059;-89
2021/10/05 00:42:53;;;;;;;35.43;14.78;;;;;;;8.76;100.00;102463.76;1668774;85;20936;-89
2021/10/05 00:45:19;;;;;;;35.68;14.23;;;;;;;8.78;100.00;102466.26;1668740;85;20974;-90
2021/10/05 00:47:45;;;;;;;22.15;10.75;;;;;;;8.79;100.00;102474.11;1668865;85;20986;-90
2021/10/05 00:50:15;;;;;;;22.37;9.98;;;;;;;8.81;100.00;102475.27;1668879;85;21071;-90
2021/10/05 00:52:40;;;;;;;28.25;11.85;;;;;;;8.81;100.00;102480.12;1668759;85;21571;-90
2021/10/05 00:55:07;;;;;;;27.32;12.15;;;;;;;8.82;100.00;102477.77;1668596;86;21540;-89
2021/10/05 00:57:33;;;;;;;22.90;10.38;;;;;;;8.83;100.00;102482.10;1668724;85;20983;-89
2021/10/05 00:59:59;;;;;;;25.08;9.53;;;;;;;8.84;100.00;102481.58;1668657;85;20893;-90
2021/10/05 01:02:25;;;;;;;26.45;9.68;;;;;;;8.84;100.00;102482.92;1668893;85;20923;-90
2021/10/05 01:04:51;;;;;;;25.40;9.98;;;;;;;8.85;100.00;102478.70;1668891;85;21617;-90
2021/10/05 01:07:19;;;;;;;23.55;9.25;;;;;;;8.87;100.00;102483.86;1668778;86;20943;-89
2021/10/05 01:09:46;;;;;;;24.75;9.60;;;;;;;8.89;100.00;102483.67;1668610;85;21012;-89
2021/10/05 01:12:13;;;;;;;26.45;10.48;;;;;;;8.92;100.00;102488.65;1668719;85;21098;-88
2021/10/05 01:14:40;;;;;;;28.70;9.95;;;;;;;8.93;100.00;102489.78;1668601;86;21058;-90
2021/10/05 01:17:07;;;;;;;20.68;8.90;;;;;;;8.95;100.00;102486.90;1668715;85;21919;-88
2021/10/05 01:19:34;;;;;;;24.10;9.50;;;;;;;8.95;100.00;102486.90;1668760;85;21562;-89
2021/10/05 01:22:00;;;;;;;23.50;9.58;;;;;;;8.94;100.00;102488.77;1668890;85;21611;-89
2021/10/05 01:24:27;;;;;;;26.17;10.23;;;;;;;8.94;100.00;102486.56;1668865;85;21546;-87
2021/10/05 01:26:55;;;;;;;21.93;9.13;;;;;;;8.94;100.00;102486.08;1668701;85;21507;-89
2021/10/05 01:29:25;;;;;;;22.98;9.83;;;;;;;8.94;100.00;102488.77;1668512;85;22193;-88
2021/10/05 01:31:54;;;;;;;21.48;9.43;;;;;;;8.94;100.00;102490.11;1668309;85;21058;-89
2021/10/05 01:34:22;;;;;;;25.97;10.00;;;;;;;9.00;100.00;102491.13;1653700;84;21479;-89
2021/10/05 01:36:51;;;;;;;22.10;9.75;;;;;;;9.00;100.00;102489.30;1692226;83;21059;-89
2021/10/05 01:39:27;;;;;;;22.60;9.83;;;;;;;9.02;100.00;102490.42;1692554;84;20955;-90
2021/10/05 01:41:57;;;;;;;24.18;9.75;;;;;;;9.03;100.00;102488.04;1691629;83;21166;-89
2021/10/05 01:44:23;;;;;;;25.12;9.95;;;;;;;9.02;100.00;102498.49;1620976;88;21064;-89
2021/10/05 01:46:50;;;;;;;22.20;9.55;;;;;;;9.02;100.00;102499.31;1621058;88;21539;-90
2021/10/05 01:49:19;;;;;;;24.52;10.40;;;;;;;9.03;100.00;102502.83;1620894;88;21584;-89
2021/10/05 01:51:46;;;;;;;23.38;9.98;;;;;;;9.03;100.00;102507.72;1620774;88;21111;-90
2021/10/05 01:54:13;;;;;;;26.07;10.28;;;;;;;9.04;100.00;102504.51;1620920;88;21267;-89
2021/10/05 01:56:40;;;;;;;22.98;10.08;;;;;;;9.04;100.00;102503.16;1620747;88;21123;-89
2021/10/05 01:59:06;;;;;;;27.73;10.55;;;;;;;9.05;100.00;102509.67;1620945;88;21095;-89
2021/10/05 02:01:32;;;;;;;24.63;10.18;;;;;;;9.03;100.00;102507.72;1620974;88;22378;-88
2021/10/05 02:03:58;;;;;;;25.68;10.23;;;;;;;9.02;100.00;102504.70;1621067;88;22123;-89
2021/10/05 02:06:24;;;;;;;28.57;10.38;;;;;;;9.03;100.00;102513.59;1620868;88;21090;-89
2021/10/05 02:08:50;;;;;;;25.57;10.78;;;;;;;9.03;100.00;102514.44;1620721;88;21048;-89
2021/10/05 02:11:16;;;;;;;23.07;10.20;;;;;;;9.02;100.00;102514.11;1621010;88;21067;-89
2021/10/05 02:13:43;;;;;;;23.80;10.93;;;;;;;9.02;100.00;102518.14;1620943;88;21614;-89
2021/10/05 02:16:09;;;;;;;27.32;11.35;;;;;;;9.02;100.00;102520.83;1621047;88;21016;-89
2021/10/05 02:18:35;;;;;;;24.15;10.70;;;;;;;9.04;100.00;102524.16;1621111;88;21370;-89
2021/10/05 02:21:01;;;;;;;27.17;10.05;;;;;;;9.05;100.00;102523.63;1620989;88;20857;-90
2021/10/05 02:26:12;;;;;;;30.37;12.28;;;;;;;9.05;100.00;102524.98;1620702;88;20976;-89
2021/10/05 02:28:38;;;;;;;28.02;11.93;;;;;;;9.06;100.00;102529.34;1620847;88;20920;-90
2021/10/05 02:31:03;;;;;;;28.25;11.22;;;;;;;9.06;100.00;102532.04;1620729;88;21085;-90
2021/10/05 02:33:31;;;;;;;28.25;11.15;;;;;;;9.06;100.00;102534.73;1620812;88;21673;-89
2021/10/05 02:35:57;;;;;;;24.47;10.13;;;;;;;9.06;100.00;102529.34;1624530;87;21114;-89
2021/10/05 02:38:23;;;;;;;25.48;9.73;;;;;;;9.08;100.00;102538.84;1627671;88;20963;-90
2021/10/05 02:40:49;;;;;;;25.62;10.95;;;;;;;9.08;100.00;102536.16;1639614;86;21515;-89
2021/10/05 02:43:15;;;;;;;27.27;11.33;;;;;;;9.10;100.00;102536.80;1663520;86;21094;-89
2021/10/05 02:45:41;;;;;;;29.63;11.93;;;;;;;9.13;100.00;102534.73;1663258;86;21116;-89
2021/10/05 02:48:07;;;;;;;25.60;11.38;;;;;;;9.13;100.00;102534.22;1663525;85;21508;-90
2021/10/05 02:50:32;;;;;;;23.85;11.00;;;;;;;9.12;100.00;102533.06;1663376;85;20959;-89
2021/10/05 02:52:58;;;;;;;25.00;10.58;;;;;;;9.13;100.00;102533.39;1663605;85;20912;-89
2021/10/05 02:55:24;;;;;;;22.60;10.30;;;;;;;9.14;100.00;102536.39;1663472;86;21948;-88
2021/10/05 02:57:50;;;;;;;23.10;9.53;;;;;;;9.14;100.00;102533.17;1663474;85;20916;-89
2021/10/05 03:00:16;;;;;;;24.65;10.40;;;;;;;9.15;100.00;102535.34;1663454;86;21080;-88
2021/10/05 03:02:42;;;;;;;21.25;9.90;;;;;;;9.15;100.00;102535.34;1663433;85;20999;-89
2021/10/05 03:05:08;;;;;;;31.57;11.73;;;;;;;9.16;100.00;102542.41;1663365;85;21454;-88
2021/10/05 03:07:34;;;;;;;23.38;9.93;;;;;;;9.14;100.00;102539.91;1663747;85;21531;-88
2021/10/05 03:09:59;;;;;;;25.10;10.65;;;;;;;9.16;100.00;102537.03;1663444;86;21484;-92
2021/10/05 03:12:26;;;;;;;22.50;9.15;;;;;;;9.17;100.00;102534.64;1663413;85;20971;-88
2021/10/05 03:14:52;;;;;;;26.10;10.43;;;;;;;9.18;100.00;102541.70;1663267;86;21066;-89
2021/10/05 03:17:18;;;;;;;27.17;10.80;;;;;;;9.19;100.00;102543.34;1670940;85;21078;-89
2021/10/05 03:19:44;;;;;;;24.92;9.70;;;;;;;9.19;100.00;102539.31;1647955;86;21274;-89
2021/10/05 03:22:11;;;;;;;24.23;10.15;;;;;;;9.19;100.00;102544.17;1663528;85;20903;-89
2021/10/05 03:24:36;;;;;;;29.63;11.90;;;;;;;9.18;100.00;102544.39;1663340;85;20956;-89
2021/10/05 03:27:03;;;;;;;21.00;10.05;;;;;;;9.18;100.00;102541.17;1663516;86;20971;-90
2021/10/05 03:29:30;;;;;;;26.52;10.08;;;;;;;9.18;100.00;102545.73;1663223;86;21148;-89
2021/10/05 03:31:55;;;;;;;25.02;10.23;;;;;;;9.19;100.00;102549.55;1663113;86;21222;-90
2021/10/05 03:34:22;;;;;;;24.27;10.00;;;;;;;9.20;100.00;102551.72;1663248;85;20932;-90
2021/10/05 03:36:48;;;;;;;24.57;9.48;;;;;;;9.21;100.00;102551.53;1688790;83;21429;-89
2021/10/05 03:39:14;;;;;;;23.27;9.83;;;;;;;9.23;100.00;102550.79;1694957;83;21070;-89
2021/10/05 03:41:40;;;;;;;24.18;10.38;;;;;;;9.23;100.00;102554.00;1692644;83;21039;-88
2021/10/05 03:44:07;;;;;;;21.62;9.75;;;;;;;9.25;100.00;102554.64;1694905;83;21957;-89
2021/10/05 03:46:33;;;;;;;24.47;10.10;;;;;;;9.25;100.00;102557.33;1694759;83;21523;-89
2021/10/05 03:48:59;;;;;;;25.43;10.32;;;;;;;9.24;100.00;102559.72;1694789;83;20970;-89
2021/10/05 03:51:24;;;;;;;23.45;10.43;;;;;;;9.24;100.00;102556.50;1694880;83;21114;-89
2021/10/05 03:53:50;;;;;;;25.82;10.55;;;;;;;9.25;100.00;102558.67;1694920;83;20907;-89
2021/10/05 03:56:16;;;;;;;25.65;10.05;;;;;;;9.26;100.00;102558.98;1694820;83;20931;-89
2021/10/05 03:58:42;;;;;;;25.55;10.28;;;;;;;9.28;100.00;102558.27;1694724;83;20963;-89
2021/10/05 04:01:08;;;;;;;23.60;9.58;;;;;;;9.30;100.00;102562.42;1694832;83;20923;-89
2021/10/05 04:03:34;;;;;;;23.83;9.85;;;;;;;9.33;100.00;102562.01;1694729;83;20889;-90
2021/10/05 04:05:59;;;;;;;24.72;10.48;;;;;;;9.36;100.00;102564.81;1694928;84;21194;-89
2021/10/05 04:08:25;;;;;;;26.97;10.10;;;;;;;9.43;100.00;102571.03;1694870;83;21549;-89
2021/10/05 04:10:51;;;;;;;25.17;10.08;;;;;;;9.47;100.00;102575.00;1690248;83;20962;-89
2021/10/05 04:13:17;;;;;;;22.50;9.75;;;;;;;9.61;100.00;102572.31;1694882;83;20907;-90
2021/10/05 04:15:43;;;;;;;22.40;9.38;;;;;;;9.61;100.00;102572.31;1694772;83;21003;-90
2021/10/05 04:18:09;;;;;;;22.65;9.23;;;;;;;9.68;100.00;102571.30;1694626;83;21574;-89
2021/10/05 04:20:35;;;;;;;22.00;9.85;;;;;;;9.74;100.00;102571.00;1694889;83;21175;-89
2021/10/05 04:23:01;;;;;;;23.07;10.10;;;;;;;9.77;100.00;102569.25;1694705;83;20992;-89
2021/10/05 04:25:28;;;;;;;21.15;9.08;;;;;;;9.81;100.00;102577.21;1694624;83;21054;-88
2021/10/05 04:27:53;;;;;;;19.75;9.13;;;;;;;9.85;100.00;102571.71;1694687;83;21057;-89
2021/10/05 04:30:20;;;;;;;23.05;9.25;;;;;;;9.93;100.00;102578.25;1694815;83;21009;-89
2021/10/05 04:32:46;;;;;;;16.45;8.10;;;;;;;9.94;100.00;102575.89;1694551;83;21090;-89
2021/10/05 04:35:12;;;;;;;23.92;10.23;;;;;;;10.00;100.00;102580.45;1694764;83;21075;-89
2021/10/05 04:37:38;;;;;;;23.75;8.80;;;;;;;10.09;100.00;102579.72;1692266;83;20999;-89
2021/10/05 04:40:07;;;;;;;21.65;9.13;;;;;;;10.53;100.00;102578.75;1687659;84;20879;-87
2021/10/05 04:42:34;;;;;;;19.35;7.90;;;;;;;11.55;100.00;102586.55;1692306;83;21042;-91
2021/10/05 04:45:00;;;;;;;23.42;8.65;;;;;;;12.61;100.00;102574.88;1692264;83;21081;-92
2021/10/05 04:47:26;;;;;;;18.25;9.08;;;;;;;13.47;100.00;102580.31;1692282;83;21562;-92
2021/10/05 04:49:52;;;;;;;18.40;8.63;;;;;;;14.28;100.00;102585.06;1692351;83;20990;-89
2021/10/05 04:52:18;;;;;;;31.17;9.10;;;;;;;15.10;100.00;102588.77;1688046;83;20848;-90
2021/10/05 04:54:43;;;;;;;17.85;7.85;;;;;;;15.46;100.00;102590.27;1687878;83;20899;-92
2021/10/05 04:57:09;;;;;;;15.93;7.83;;;;;;;16.04;100.00;102585.06;1692124;83;21078;-92
2021/10/05 04:59:35;;;;;;;17.15;8.75;;;;;;;16.79;100.00;102581.02;1692157;83;20911;-90
2021/10/05 05:02:01;;;;;;;16.48;8.60;;;;;;;17.16;98.60;102587.16;1692344;83;21328;-92
2021/10/05 05:04:27;;;;;;;15.53;7.78;;;;;;;17.41;93.07;102580.33;1692458;83;21035;-91
2021/10/05 05:06:53;;;;;;;15.15;7.60;;;;;;;17.63;90.25;102589.28;1692467;83;21760;-93
2021/10/05 05:09:19;;;;;;;20.52;9.15;;;;;;;18.07;84.27;102594.61;1692450;83;21211;-93
2021/10/05 05:11:45;;;;;;;15.98;8.43;;;;;;;17.95;76.67;102591.24;1692456;83;20882;-91
2021/10/05 05:14:12;;;;;;;13.78;8.30;;;;;;;18.10;75.93;102588.63;1692424;83;20982;-92
2021/10/05 05:16:41;;;;;;;13.28;7.30;;;;;;;18.46;75.60;102587.49;1692152;83;21535;-93
2021/10/05 05:19:09;;;;;;;16.90;7.15;;;;;;;19.17;69.42;102582.09;1692472;83;21019;-92
2021/10/05 05:21:36;;;;;;;16.02;7.97;;;;;;;19.36;64.32;102592.82;1692536;83;21275;-93
2021/10/05 05:24:03;;;;;;;13.65;7.90;;;;;;;19.25;64.41;102586.50;1692291;83;21043;-93
2021/10/05 05:26:29;;;;;;;14.93;7.97;;;;;;;19.58;61.73;102595.86;1692412;83;21003;-93
2021/10/05 05:28:55;;;;;;;13.22;7.97;;;;;;;19.88;59.96;102596.45;1687914;83;21054;-93
2021/10/05 05:31:22;;;;;;;16.55;7.12;;;;;;;20.53;60.08;102592.56;1692385;83;21582;-93
2021/10/05 05:33:48;;;;;;;17.57;7.55;;;;;;;21.04;55.58;102597.88;1664912;84;21149;-94
2021/10/05 05:36:14;;;;;;;11.57;6.95;;;;;;;21.26;53.05;102599.66;1692688;83;21014;-91
2021/10/05 05:38:40;;;;;;;14.68;8.25;;;;;;;21.35;52.23;102594.95;1695606;82;20907;-90
2021/10/05 05:41:07;;;;;;;13.55;7.30;;;;;;;21.08;49.91;102600.31;1683393;83;21573;-95
2021/10/05 05:43:34;;;;;;;22.73;7.67;;;;;;;20.71;50.35;102601.58;1703879;82;21018;-90
2021/10/05 05:46:00;;;;;;;17.55;7.67;;;;;;;20.98;50.01;102603.11;1688411;82;21142;-94
2021/10/05 05:48:26;;;;;;;13.90;7.10;;;;;;;21.12;48.58;102589.59;1657181;84;21022;-93
2021/10/05 05:50:52;;;;;;;15.98;7.05;;;;;;;21.32;48.32;102596.33;1693824;84;20952;-92
2021/10/05 05:53:18;;;;;;;12.35;7.08;;;;;;;21.12;48.47;102600.03;1693520;84;20955;-90
2021/10/05 05:55:44;;;;;;;14.38;7.80;;;;;;;21.85;47.31;102592.41;1694014;83;20920;-91
2021/10/05 05:58:13;;;;;;;15.20;7.67;;;;;;;21.91;45.53;102602.80;1695587;83;21653;-91
2021/10/05 06:00:40;;;;;;;17.57;7.45;;;;;;;21.80;44.94;102594.41;1694801;83;21015;-91
2021/10/05 06:03:07;;;;;;;15.13;7.45;;;;;;;22.20;44.89;102594.61;1664690;84;21129;-91
2021/10/05 06:05:34;;;;;;;14.07;7.05;;;;;;;22.29;43.00;102597.55;1631936;87;21110;-88
2021/10/05 06:08:00;;;;;;;13.32;6.72;;;;;;;21.77;42.81;102591.68;1632017;86;21048;-91
2021/10/05 06:10:26;;;;;;;12.50;7.25;;;;;;;21.37;43.20;102600.45;1631927;85;22142;-91
2021/10/05 06:12:53;;;;;;;14.45;6.83;;;;;;;21.58;44.17;102588.79;1632234;86;20884;-91
2021/10/05 06:15:21;;;;;;;12.95;6.40;;;;;;;22.36;41.93;102605.72;1631583;86;21134;-95
2021/10/05 06:17:49;;;;;;;11.97;6.95;;;;;;;22.29;42.07;102596.17;1632041;87;21040;-88
2021/10/05 06:20:20;;;;;;;14.83;6.90;;;;;;;22.64;40.57;102597.71;1632038;86;21090;-90
2021/10/05 06:22:46;;;;;;;8.93;5.67;;;;;;;23.12;40.34;102599.09;1633589;86;21098;-93
2021/10/05 06:25:17;;;;;;;13.40;6.37;;;;;;;23.53;38.66;102606.19;1634685;86;21187;-89
2021/10/05 06:27:44;;;;;;;18.75;6.58;;;;;;;23.67;39.14;102601.29;1631898;86;21037;-90
2021/10/05 06:30:13;;;;;;;12.15;6.17;;;;;;;23.74;36.63;102605.34;1663433;84;21559;-91
2021/10/05 06:32:40;;;;;;;11.08;5.67;;;;;;;23.58;37.36;102612.97;1689285;83;21181;-91
2021/10/05 06:35:08;;;;;;;10.53;5.92;;;;;;;23.76;36.55;102613.28;1692910;84;21150;-93
2021/10/05 06:37:34;;;;;;;9.65;5.72;;;;;;;24.31;36.00;102611.25;1686266;84;21047;-94
2021/10/05 06:40:01;;;;;;;13.83;6.25;;;;;;;24.62;35.65;102612.87;1684490;85;21019;-90
2021/10/05 06:42:32;;;;;;;14.50;6.20;;;;;;;23.52;35.14;102614.17;1684416;85;21106;-92
2021/10/05 06:44:55;;;;;;;10.28;6.10;;;;;;;22.66;36.53;102625.17;1680807;85;21096;-91
2021/10/05 06:47:20;;;;;;;18.20;5.60;;;;;;;21.99;37.77;102615.92;1684483;85;21622;-86
2021/10/05 06:49:46;;;;;;;13.85;5.80;;;;;;;21.66;37.23;102621.12;1684479;85;20987;-86
2021/10/05 06:52:12;;;;;;;11.15;5.67;;;;;;;20.75;38.11;102619.64;1684326;85;20927;-91
2021/10/05 06:54:38;;;;;;;15.43;5.78;;;;;;;20.34;38.96;102619.70;1684426;85;20911;-87
2021/10/05 06:57:04;;;;;;;10.93;5.15;;;;;;;20.34;39.12;102620.52;1684601;85;20994;-88
2021/10/05 06:59:30;;;;;;;11.63;5.00;;;;;;;20.04;39.47;102621.92;1684420;85;21146;-87
2021/10/05 07:01:56;;;;;;;9.10;5.03;;;;;;;20.01;40.48;102621.92;1684483;85;20876;-84
2021/10/05 07:04:21;;;;;;;9.33;5.30;;;;;;;20.70;39.34;102621.02;1684301;85;21081;-84
2021/10/05 07:06:47;;;;;;;15.03;5.17;;;;;;;20.80;38.48;102623.74;1684247;85;22297;-83
2021/10/05 07:09:13;;;;;;;17.45;5.30;;;;;;;21.06;39.13;102625.28;1684440;85;20896;-83
2021/10/05 07:11:39;;;;;;;11.43;5.25;;;;;;;21.64;38.21;102618.39;1684591;85;21139;-85
2021/10/05 07:14:05;;;;;;;14.95;6.17;;;;;;;22.13;38.01;102616.89;1684353;85;21677;-84
2021/10/05 07:16:31;;;;;;;12.47;5.40;;;;;;;23.13;36.81;102621.34;1684635;85;21601;-84
2021/10/05 07:18:57;;;;;;;8.05;4.90;;;;;;;23.45;35.77;102621.99;1684591;85;20884;-83
2021/10/05 07:21:23;;;;;;;9.78;4.78;;;;;;;23.68;34.77;102620.27;1684507;85;20920;-84
2021/10/05 07:23:52;;;;;;;10.15;5.28;;;;;;;23.76;34.91;102620.16;1684800;85;21860;-86
2021/10/05 07:26:18;;;;;;;8.28;4.70;;;;;;;24.31;34.90;102620.89;1656041;85;21079;-84
2021/10/05 07:28:45;;;;;;;9.45;4.97;;;;;;;24.75;32.85;102623.66;1684339;85;21118;-84
2021/10/05 07:31:12;;;;;;;12.05;4.62;;;;;;;25.40;32.63;102619.81;1684206;85;21675;-83
2021/10/05 07:33:39;;;;;;;12.50;4.40;;;;;;;25.18;31.19;102620.03;1684112;85;21480;-84
2021/10/05 07:36:05;;;;;;;7.85;4.62;;;;;;;25.28;31.29;102611.50;1684159;85;21362;-83
2021/10/05 07:38:31;;;;;;;9.58;4.67;;;;;;;25.18;31.02;102610.37;1684453;85;21082;-84
2021/10/05 07:40:57;;;;;;;13.05;4.70;;;;;;;25.59;30.68;102612.19;1684457;85;21055;-84
2021/10/05 07:43:23;;;;;;;7.95;3.92;;;;;;;25.41;29.74;102618.67;1684461;85;20927;-85
2021/10/05 07:45:51;;;;;;;8.68;4.12;;;;;;;25.18;30.27;102618.65;1684560;85;20991;-86
2021/10/05 07:48:17;;;;;;;6.53;3.83;;;;;;;25.59;29.97;102615.76;1684057;85;22177;-86
2021/10/05 07:50:43;;;;;;;7.78;4.37;;;;;;;25.28;29.53;102627.25;1684669;85;21008;-82
2021/10/05 07:53:09;;;;;;;9.93;4.10;;;;;;;24.86;30.65;102627.85;1684488;85;21054;-84
2021/10/05 07:55:34;;;;;;;15.10;4.90;;;;;;;25.10;30.47;102623.48;1684640;85;20936;-83
2021/10/05 07:58:01;;;;;;;7.60;4.50;;;;;;;25.57;30.03;102624.09;1684445;85;20991;-84
2021/10/05 08:00:28;;;;;;;12.93;4.35;;;;;;;26.29;29.37;102616.21;1684463;85;21060;-83
2021/10/05 08:02:54;;;;;;;8.83;4.37;;;;;;;26.25;28.26;102621.57;1684340;85;21500;-83
2021/10/05 08:05:21;;;;;;;62.75;6.03;;;;;;;26.10;28.07;102620.59;1684402;85;21019;-84
2021/10/05 08:07:57;;;;;;;11.57;3.83;;;;;;;25.62;27.75;102629.51;1684583;85;21019;-84
2021/10/05 08:10:23;;;;;;;6.35;3.85;;;;;;;24.64;29.17;102637.64;1596327;89;21077;-84
2021/10/05 08:12:49;;;;;;;9.45;4.00;;;;;;;23.85;30.44;102631.31;1597940;89;21978;-84
2021/10/05 08:15:16;;;;;;;9.30;4.67;;;;;;;24.76;29.38;102606.80;1597845;89;21680;-84
2021/10/05 08:17:42;;;;;;;12.82;4.30;;;;;;;24.76;29.38;102606.80;1597948;89;21080;-84
2021/10/05 08:20:10;;;;;;;6.67;4.05;;;;;;;25.36;29.14;102628.72;1598240;89;21057;-84
2021/10/05 08:22:37;;;;;;;9.03;3.45;;;;;;;25.93;28.32;102621.87;1597888;89;21119;-83
2021/10/05 08:25:04;;;;;;;12.63;4.58;;;;;;;25.83;27.13;102621.57;1598081;88;21099;-85
2021/10/05 08:27:30;;;;;;;8.38;4.08;;;;;;;25.43;26.74;102642.08;1598516;88;21145;-85
2021/10/05 08:29:57;;;;;;;10.18;3.92;;;;;;;24.88;28.02;102633.86;1598610;88;21563;-83
2021/10/05 08:32:23;;;;;;;17.00;3.90;;;;;;;25.42;27.76;102622.52;1583345;88;21073;-84
2021/10/05 08:34:49;;;;;;;9.78;3.62;;;;;;;25.66;27.51;102624.98;1598689;88;21085;-82
2021/10/05 08:37:15;;;;;;;15.23;3.95;;;;;;;25.40;27.46;102629.47;1599189;87;21061;-83
2021/10/05 08:39:41;;;;;;;8.80;3.67;;;;;;;25.28;27.75;102623.11;1600821;88;20930;-84
2021/10/05 08:42:07;;;;;;;12.18;3.75;;;;;;;25.19;28.19;102626.36;1604161;88;21154;-83
2021/10/05 08:44:35;;;;;;;9.50;4.25;;;;;;;25.41;27.73;102629.72;1611405;88;21048;-83
2021/10/05 08:47:01;;;;;;;8.13;3.60;;;;;;;25.18;27.52;102618.65;1606060;88;21557;-86
2021/10/05 08:49:27;;;;;;;7.60;3.33;;;;;;;24.91;27.38;102623.05;1604131;89;21057;-85
2021/10/05 08:51:55;;;;;;;9.18;3.40;;;;;;;24.78;27.07;102621.67;1603919;89;20953;-85
2021/10/05 08:54:23;;;;;;;10.32;3.72;;;;;;;24.83;27.42;102609.16;1604056;89;21072;-86
2021/10/05 08:56:49;;;;;;;8.95;3.50;;;;;;;24.84;27.63;102617.11;1604036;89;21006;-84
2021/10/05 08:59:15;;;;;;;23.77;3.52;;;;;;;24.69;27.94;102618.24;1605839;84;21253;-83
2021/10/05 09:01:42;;;;;;;12.15;3.72;;;;;;;23.63;27.62;102614.84;1693568;84;21990;-83
2021/10/05 09:04:08;;;;;;;7.25;3.70;;;;;;;22.40;29.34;102611.45;1693404;84;21503;-84
2021/10/05 09:06:38;;;;;;;12.75;3.67;;;;;;;22.70;30.10;102613.59;1693548;84;20996;-84
2021/10/05 09:09:05;;;;;;;21.10;3.90;;;;;;;22.20;30.22;102620.70;1693270;84;21098;-87
2021/10/05 09:11:41;;;;;;;10.08;3.70;;;;;;;21.28;31.22;102625.44;1676882;83;21054;-83
2021/10/05 09:14:08;;;;;;;9.50;3.37;;;;;;;21.33;31.88;102618.01;1692525;83;21066;-83
2021/10/05 09:16:34;;;;;;;8.25;3.55;;;;;;;22.05;31.57;102620.25;1692158;83;21035;-83
2021/10/05 09:19:16;;;;;;;6.53;3.47;;;;;;;22.28;31.09;102615.15;1692257;83;20895;-84
2021/10/05 09:21:49;;;;;;;6.77;4.77;;;;;;;22.73;30.96;102626.19;1692556;83;21035;-83
2021/10/05 09:24:28;;;;;;;11.20;5.33;;;;;;;21.63;30.83;102623.62;1692437;83;21483;-83
2021/10/05 09:26:58;;;;;;;28.02;5.05;;;;;;;21.01;31.41;102623.11;1688389;83;21983;-82
2021/10/05 09:29:32;;;;;;;21.05;3.90;;;;;;;21.29;31.08;102636.67;1692469;83;21078;-82
2021/10/05 09:32:09;;;;;;;41.25;4.25;;;;;;;21.08;30.88;102630.47;1692594;83;20999;-84
2021/10/05 09:34:51;;;;;;;21.68;3.52;;;;;;;20.23;31.80;102626.28;1692238;83;21520;-83
2021/10/05 09:37:27;;;;;;;12.80;3.20;;;;;;;20.19;32.48;102628.20;1648226;86;21182;-84
2021/10/05 09:40:04;;;;;;;9.40;3.08;;;;;;;20.24;32.51;102634.79;1658601;86;21991;-83
2021/10/05 09:42:45;;;;;;;7.97;3.37;;;;;;;20.24;33.27;102629.31;1658255;86;20947;-82
2021/10/05 09:45:27;;;;;;;19.92;3.62;;;;;;;20.29;32.75;102628.73;1658119;86;22386;-83
2021/10/05 09:47:55;;;;;;;39.30;4.60;;;;;;;19.50;32.80;102624.03;1631064;86;21042;-83
2021/10/05 09:50:28;;;;;;;15.23;3.17;;;;;;;18.75;33.83;102618.00;1631522;86;21093;-83
2021/10/05 09:53:01;;;;;;;16.85;3.62;;;;;;;18.28;34.73;102628.88;1631275;88;21204;-82
2021/10/05 09:55:31;;;;;;;;;;;;;;;18.00;35.40;102620.45;1633583;88;20982;-85
2021/10/05 09:57:57;;;;;;;14.53;3.17;;;;;;;17.91;36.03;102625.05;1531700;93;20158;-83
2021/10/05 10:00:28;;;;;;;10.63;3.15;;;;;;;17.83;36.32;102613.78;1532079;93;21137;-82
2021/10/05 10:02:54;;;;;;;10.15;3.35;;;;;;;17.87;36.91;102613.53;1512871;93;21167;-82
2021/10/05 10:05:23;;;;;;;7.87;3.10;;;;;;;17.99;37.10;102616.91;1531707;93;21232;-83
2021/10/05 10:07:55;;;;;;;15.55;3.10;;;;;;;18.02;36.65;102616.39;1531968;93;21001;-85
2021/10/05 10:10:27;;;;;;;13.53;3.20;;;;;;;18.09;36.94;102625.20;1532029;93;21027;-81
2021/10/05 10:12:57;;;;;;;10.18;2.72;;;;;;;18.00;36.27;102621.81;1529693;93;21140;-83
2021/10/05 10:15:27;;;;;;;13.98;2.87;;;;;;;17.62;36.80;102618.19;1530069;93;20928;-83
2021/10/05 10:18:09;;;;;;;7.55;2.70;;;;;;;17.30;37.34;102631.20;1530117;93;21891;-82
2021/10/05 10:20:41;;;;;;;6.53;2.90;;;;;;;17.12;37.67;102629.63;1530002;93;21284;-84
2021/10/05 10:23:24;;;;;;;5.92;2.70;;;;;;;17.01;38.41;102633.30;1530439;93;21073;-83
2021/10/05 10:26:04;;;;;;;9.70;2.80;;;;;;;17.07;38.54;102619.20;1520925;92;21119;-82
2021/10/05 10:28:37;;;;;;;11.73;2.87;;;;;;;17.32;38.59;102613.22;1529135;92;21110;-83
2021/10/05 10:31:11;;;;;;;10.30;2.58;;;;;;;17.68;38.91;102613.89;1501316;93;24941;-82
2021/10/05 10:33:51;;;;;;;11.33;2.80;;;;;;;17.71;38.27;102614.73;1525545;90;21209;-83
2021/10/05 10:36:30;;;;;;;9.45;2.85;;;;;;;17.46;38.89;102625.38;1555519;92;21599;-83
2021/10/05 10:39:18;;;;;;;12.75;5.33;;;;;;;17.30;38.16;102618.94;1481282;95;21139;-81
2021/10/05 10:41:55;;;;;;;26.17;3.92;;;;;;;17.32;38.92;102615.40;1485811;95;21129;-84
2021/10/05 10:44:37;;;;;;;9.13;3.70;;;;;;;17.65;39.13;102599.95;1501746;95;21812;-87
2021/10/05 10:47:16;;;;;;;14.20;3.10;;;;;;;17.84;39.04;102608.59;1457056;98;21575;-84
2021/10/05 10:50:00;;;;;;;22.90;3.65;;;;;;;17.89;38.23;102614.92;1457290;98;21137;-82
2021/10/05 10:52:30;;;;;;;16.02;3.98;;;;;;;17.63;38.75;102611.65;1400766;101;21105;-82
2021/10/05 10:54:58;;;;;;;11.18;3.17;;;;;;;17.23;38.74;102610.13;1401724;100;21265;-85
2021/10/05 10:57:41;;;;;;;7.70;3.35;;;;;;;16.92;39.35;102611.12;1426178;100;21284;-82
2021/10/05 11:00:13;;;;;;;9.18;3.12;;;;;;;16.85;40.41;102598.22;1368404;103;21193;-84
2021/10/05 11:02:59;;;;;;;5.95;2.85;;;;;;;17.08;40.73;102596.33;1313947;108;21672;-82
2021/10/05 11:05:28;;;;;;;7.58;3.00;;;;;;;17.08;40.42;102595.78;1313867;109;21218;-83
2021/10/05 11:07:57;;;;;;;11.70;3.70;;;;;;;17.14;40.39;102597.48;1313779;107;21758;-81
2021/10/05 11:10:33;;;;;;;30.00;4.30;;;;;;;17.32;40.93;102588.14;1300465;109;21421;-83
2021/10/05 11:13:03;;;;;;;23.85;3.55;;;;;;;17.59;39.25;102600.44;1277450;111;21325;-82
2021/10/05 11:15:42;;;;;;;13.75;2.60;;;;;;;17.75;38.42;102594.58;1277522;111;21175;-85
2021/10/05 11:18:17;;;;;;;11.50;3.05;;;;;;;17.69;37.89;102599.16;1277417;111;21652;-83
2021/10/05 11:20:51;;;;;;;7.42;3.30;;;;;;;17.51;38.49;102596.81;1276531;111;21183;-83
2021/10/05 11:23:21;;;;;;;20.62;3.42;;;;;;;17.47;39.02;102600.59;1266143;112;22011;-84